createdAt,value
2019-02-04T00:00:58.704Z,-71
2019-02-04T00:01:58.562Z,-71
2019-02-04T00:02:58.684Z,-71
2019-02-04T00:03:58.564Z,-71
2019-02-04T00:04:58.692Z,-71
2019-02-04T00:05:58.591Z,-72
2019-02-04T00:06:58.691Z,-74
2019-02-04T00:07:58.568Z,-72
2019-02-04T00:08:58.689Z,-72
2019-02-04T00:09:58.569Z,-72
2019-02-04T00:10:59.595Z,-72
2019-02-04T00:11:58.571Z,-72
2019-02-04T00:12:58.693Z,-72
2019-02-04T00:13:58.574Z,-72
2019-02-04T00:14:58.698Z,-73
2019-02-04T00:15:58.600Z,-73
2019-02-04T00:16:58.694Z,-73
2019-02-04T00:17:58.575Z,-73
2019-02-04T00:18:58.697Z,-73
2019-02-04T00:19:58.576Z,-73
2019-02-04T00:20:58.721Z,-73
2019-02-04T00:21:58.577Z,-73
2019-02-04T00:22:58.698Z,-73
2019-02-04T00:23:58.580Z,-73
2019-02-04T00:24:58.695Z,-73
2019-02-04T00:25:58.607Z,-73
2019-02-04T00:26:58.717Z,-73
2019-02-04T00:27:58.584Z,-73
2019-02-04T00:28:58.698Z,-73
2019-02-04T00:29:58.584Z,-73
2019-02-04T00:30:58.851Z,-73
2019-02-04T00:31:58.587Z,-73
2019-02-04T00:32:58.705Z,-73
2019-02-04T00:33:58.588Z,-73
2019-02-04T00:34:58.707Z,-73
2019-02-04T00:35:58.589Z,-73
2019-02-04T00:36:58.732Z,-73
2019-02-04T00:37:58.590Z,-73
2019-02-04T00:38:58.713Z,-73
2019-02-04T00:39:58.593Z,-73
2019-02-04T00:40:58.709Z,-73
2019-02-04T00:41:58.621Z,-73
2019-02-04T00:42:58.712Z,-73
2019-02-04T00:43:58.596Z,-73
2019-02-04T00:44:58.711Z,-73
2019-02-04T00:45:58.597Z,-73
2019-02-04T00:46:58.739Z,-73
2019-02-04T00:47:58.599Z,-73
2019-02-04T00:48:58.738Z,-73
2019-02-04T00:49:58.601Z,-73
2019-02-04T00:50:58.717Z,-73
2019-02-04T00:51:58.682Z,-73
2019-02-04T00:52:59.037Z,-73
2019-02-04T00:53:58.604Z,-73
2019-02-04T00:54:58.719Z,-73
2019-02-04T00:55:58.604Z,-72
2019-02-04T00:56:58.889Z,-73
2019-02-04T00:57:58.605Z,-73
2019-02-04T00:58:58.724Z,-73
2019-02-04T00:59:58.609Z,-73
2019-02-04T01:00:58.983Z,-73
2019-02-04T01:01:58.636Z,-74
2019-02-04T01:02:58.730Z,-74
2019-02-04T01:03:58.612Z,-74
2019-02-04T01:04:58.729Z,-74
2019-02-04T01:05:58.613Z,-74
2019-02-04T01:06:58.761Z,-74
2019-02-04T01:07:58.613Z,-73
2019-02-04T01:08:59.136Z,-73
2019-02-04T01:09:58.617Z,-73
2019-02-04T01:10:58.734Z,-74
2019-02-04T01:11:58.645Z,-73
2019-02-04T01:12:58.745Z,-73
2019-02-04T01:13:58.623Z,-73
2019-02-04T01:14:58.742Z,-74
2019-02-04T01:15:58.624Z,-72
2019-02-04T01:17:03.930Z,-72
2019-02-04T01:17:58.628Z,-72
2019-02-04T01:18:58.746Z,-72
2019-02-04T01:19:58.624Z,-72
2019-02-04T01:20:58.744Z,-72
2019-02-04T01:21:58.652Z,-72
2019-02-04T01:22:58.750Z,-72
2019-02-04T01:23:58.628Z,-72
2019-02-04T01:24:58.932Z,-72
2019-02-04T01:25:58.633Z,-72
2019-02-04T01:26:58.772Z,-72
2019-02-04T01:27:58.916Z,-73
2019-02-04T01:28:58.753Z,-73
2019-02-04T01:29:58.644Z,-72
2019-02-04T01:30:58.754Z,-71
2019-02-04T01:31:58.637Z,-71
2019-02-04T01:32:59.185Z,-71
2019-02-04T01:33:58.638Z,-71
2019-02-04T01:34:58.763Z,-71
2019-02-04T01:35:58.638Z,-71
2019-02-04T01:36:58.764Z,-72
2019-02-04T01:37:58.664Z,-72
2019-02-04T01:38:58.764Z,-72
2019-02-04T01:39:58.641Z,-72
2019-02-04T01:40:59.234Z,-72
2019-02-04T01:41:58.644Z,-72
2019-02-04T01:42:58.785Z,-72
2019-02-04T01:43:58.644Z,-72
2019-02-04T01:44:58.769Z,-72
2019-02-04T01:45:58.648Z,-72
2019-02-04T01:46:58.763Z,-72
2019-02-04T01:47:58.674Z,-72
2019-02-04T01:48:59.182Z,-72
2019-02-04T01:49:58.649Z,-72
2019-02-04T01:50:58.771Z,-72
2019-02-04T01:51:58.653Z,-72
2019-02-04T01:52:58.810Z,-73
2019-02-04T01:53:58.654Z,-72
2019-02-04T01:54:58.773Z,-72
2019-02-04T01:55:58.657Z,-72
2019-02-04T01:56:59.136Z,-74
2019-02-04T01:57:58.684Z,-72
2019-02-04T01:58:58.771Z,-72
2019-02-04T01:59:58.661Z,-73
2019-02-04T02:00:58.785Z,-74
2019-02-04T02:01:58.658Z,-73
2019-02-04T02:02:58.806Z,-73
2019-02-04T02:03:58.661Z,-73
2019-02-04T02:04:59.178Z,-73
2019-02-04T02:05:58.667Z,-74
2019-02-04T02:06:58.795Z,-74
2019-02-04T02:07:58.689Z,-73
2019-02-04T02:08:58.792Z,-73
2019-02-04T02:09:58.667Z,-73
2019-02-04T02:10:58.791Z,-73
2019-02-04T02:11:58.668Z,-73
2019-02-04T02:12:59.025Z,-73
2019-02-04T02:13:58.669Z,-73
2019-02-04T02:14:58.786Z,-73
2019-02-04T02:15:58.671Z,-73
2019-02-04T02:16:58.832Z,-74
2019-02-04T02:17:58.674Z,-73
2019-02-04T02:18:58.825Z,-74
2019-02-04T02:19:58.673Z,-74
2019-02-04T02:20:58.791Z,-73
2019-02-04T02:21:58.674Z,-74
2019-02-04T02:22:58.811Z,-74
2019-02-04T02:23:58.699Z,-74
2019-02-04T02:24:58.794Z,-74
2019-02-04T02:25:58.690Z,-74
2019-02-04T02:26:58.802Z,-74
2019-02-04T02:27:58.681Z,-74
2019-02-04T02:28:59.323Z,-74
2019-02-04T02:29:58.680Z,-74
2019-02-04T02:30:58.813Z,-74
2019-02-04T02:31:58.690Z,-74
2019-02-04T02:32:58.803Z,-74
2019-02-04T02:33:58.711Z,-74
2019-02-04T02:34:58.812Z,-74
2019-02-04T02:35:58.686Z,-74
2019-02-04T02:36:58.808Z,-75
2019-02-04T02:37:58.685Z,-74
2019-02-04T02:38:58.833Z,-75
2019-02-04T02:39:58.755Z,-74
2019-02-04T02:40:58.811Z,-74
2019-02-04T02:41:58.692Z,-74
2019-02-04T02:42:58.824Z,-75
2019-02-04T02:43:59.521Z,-75
2019-02-04T02:44:58.824Z,-73
2019-02-04T02:45:58.694Z,-73
2019-02-04T02:46:58.809Z,-74
2019-02-04T02:47:58.700Z,-71
2019-02-04T02:48:58.847Z,-71
2019-02-04T02:49:58.695Z,-72
2019-02-04T02:50:58.818Z,-72
2019-02-04T02:51:58.699Z,-71
2019-02-04T02:52:58.825Z,-71
2019-02-04T02:53:58.727Z,-71
2019-02-04T02:54:58.824Z,-71
2019-02-04T02:55:58.702Z,-71
2019-02-04T02:56:58.824Z,-71
2019-02-04T02:57:58.706Z,-71
2019-02-04T02:58:58.851Z,-71
2019-02-04T02:59:58.702Z,-71
2019-02-04T03:00:58.829Z,-71
2019-02-04T03:01:58.706Z,-71
2019-02-04T03:02:58.828Z,-71
2019-02-04T03:03:58.747Z,-71
2019-02-04T03:04:58.826Z,-72
2019-02-04T03:05:58.707Z,-72
2019-02-04T03:06:58.839Z,-71
2019-02-04T03:07:58.711Z,-72
2019-02-04T03:08:58.830Z,-71
2019-02-04T03:09:58.738Z,-71
2019-02-04T03:10:58.840Z,-71
2019-02-04T03:11:58.712Z,-71
2019-02-04T03:12:58.843Z,-71
2019-02-04T03:13:58.713Z,-71
2019-02-04T03:14:58.864Z,-74
2019-02-04T03:15:58.717Z,-74
2019-02-04T03:16:58.845Z,-74
2019-02-04T03:17:58.719Z,-74
2019-02-04T03:18:58.843Z,-73
2019-02-04T03:19:58.781Z,-73
2019-02-04T03:20:58.900Z,-73
2019-02-04T03:21:58.752Z,-73
2019-02-04T03:22:58.902Z,-73
2019-02-04T03:24:00.687Z,-73
2019-02-04T03:24:58.934Z,-73
2019-02-04T03:26:01.548Z,-73
2019-02-04T03:26:58.948Z,-73
2019-02-04T03:27:58.725Z,-73
2019-02-04T03:28:58.854Z,-73
2019-02-04T03:29:58.754Z,-73
2019-02-04T03:30:59.099Z,-74
2019-02-04T03:31:58.729Z,-74
2019-02-04T03:32:58.881Z,-74
2019-02-04T03:33:58.731Z,-74
2019-02-04T03:34:58.885Z,-74
2019-02-04T03:35:58.729Z,-74
2019-02-04T03:36:58.852Z,-73
2019-02-04T03:37:58.735Z,-74
2019-02-04T03:38:59.147Z,-74
2019-02-04T03:39:58.762Z,-74
2019-02-04T03:40:58.854Z,-74
2019-02-04T03:41:58.737Z,-74
2019-02-04T03:42:58.876Z,-74
2019-02-04T03:43:58.739Z,-74
2019-02-04T03:44:58.891Z,-74
2019-02-04T03:45:58.825Z,-74
2019-02-04T03:46:58.993Z,-74
2019-02-04T03:48:04.746Z,-74
2019-02-04T03:48:58.860Z,-74
2019-02-04T03:49:58.768Z,-71
2019-02-04T03:50:58.866Z,-71
2019-02-04T03:51:58.744Z,-72
2019-02-04T03:52:58.869Z,-72
2019-02-04T03:53:58.743Z,-72
2019-02-04T03:54:59.159Z,-72
2019-02-04T03:55:58.747Z,-72
2019-02-04T03:56:58.866Z,-72
2019-02-04T03:57:58.748Z,-71
2019-02-04T03:58:58.872Z,-70
2019-02-04T03:59:58.777Z,-71
2019-02-04T04:00:58.867Z,-72
2019-02-04T04:01:58.751Z,-72
2019-02-04T04:02:59.294Z,-72
2019-02-04T04:03:58.750Z,-72
2019-02-04T04:04:58.982Z,-72
2019-02-04T04:05:58.753Z,-72
2019-02-04T04:06:58.879Z,-73
2019-02-04T04:07:58.757Z,-73
2019-02-04T04:08:58.880Z,-73
2019-02-04T04:09:58.784Z,-72
2019-02-04T04:10:59.243Z,-74
2019-02-04T04:11:58.761Z,-74
2019-02-04T04:12:58.897Z,-73
2019-02-04T04:13:58.763Z,-73
2019-02-04T04:14:58.932Z,-72
2019-02-04T04:15:58.762Z,-72
2019-02-04T04:16:58.881Z,-72
2019-02-04T04:17:58.764Z,-72
2019-02-04T04:18:59.291Z,-73
2019-02-04T04:19:58.770Z,-73
2019-02-04T04:20:58.920Z,-73
2019-02-04T04:21:58.766Z,-73
2019-02-04T04:22:58.885Z,-73
2019-02-04T04:23:58.769Z,-73
2019-02-04T04:24:58.895Z,-73
2019-02-04T04:25:58.799Z,-71
2019-02-04T04:26:59.240Z,-72
2019-02-04T04:27:58.773Z,-72
2019-02-04T04:28:58.920Z,-72
2019-02-04T04:29:58.774Z,-72
2019-02-04T04:30:58.924Z,-72
2019-02-04T04:31:58.776Z,-72
2019-02-04T04:32:58.897Z,-72
2019-02-04T04:33:58.777Z,-72
2019-02-04T04:34:59.291Z,-73
2019-02-04T04:35:58.803Z,-73
2019-02-04T04:36:58.903Z,-73
2019-02-04T04:37:58.780Z,-72
2019-02-04T04:38:58.899Z,-72
2019-02-04T04:39:58.782Z,-70
2019-02-04T04:40:58.922Z,-70
2019-02-04T04:41:58.786Z,-70
2019-02-04T04:42:58.907Z,-70
2019-02-04T04:43:58.786Z,-70
2019-02-04T04:44:58.904Z,-70
2019-02-04T04:45:58.809Z,-70
2019-02-04T04:46:58.906Z,-70
2019-02-04T04:47:58.784Z,-70
2019-02-04T04:48:58.905Z,-70
2019-02-04T04:49:58.788Z,-70
2019-02-04T04:50:58.943Z,-70
2019-02-04T04:51:58.794Z,-70
2019-02-04T04:52:58.906Z,-70
2019-02-04T04:53:58.791Z,-70
2019-02-04T04:54:59.991Z,-70
2019-02-04T04:55:58.828Z,-70
2019-02-04T04:56:58.913Z,-70
2019-02-04T04:57:58.795Z,-69
2019-02-04T04:58:58.913Z,-70
2019-02-04T04:59:58.797Z,-70
2019-02-04T05:00:58.943Z,-70
2019-02-04T05:01:58.798Z,-70
2019-02-04T05:02:58.926Z,-70
2019-02-04T05:03:58.799Z,-70
2019-02-04T05:04:58.918Z,-70
2019-02-04T05:05:58.826Z,-70
2019-02-04T05:07:00.924Z,-70
2019-02-04T05:07:58.802Z,-70
2019-02-04T05:08:58.924Z,-70
2019-02-04T05:09:58.806Z,-70
2019-02-04T05:10:58.954Z,-70
2019-02-04T05:11:58.811Z,-70
2019-02-04T05:12:58.928Z,-70
2019-02-04T05:13:58.821Z,-69
2019-02-04T05:14:58.930Z,-71
2019-02-04T05:15:58.835Z,-71
2019-02-04T05:16:58.936Z,-71
2019-02-04T05:17:58.812Z,-71
2019-02-04T05:18:58.930Z,-70
2019-02-04T05:19:58.811Z,-70
2019-02-04T05:20:58.957Z,-70
2019-02-04T05:21:58.814Z,-70
2019-02-04T05:22:58.938Z,-70
2019-02-04T05:23:58.815Z,-69
2019-02-04T05:24:58.944Z,-70
2019-02-04T05:25:58.842Z,-70
2019-02-04T05:26:58.946Z,-70
2019-02-04T05:27:58.818Z,-70
2019-02-04T05:28:58.933Z,-70
2019-02-04T05:29:58.817Z,-70
2019-02-04T05:30:58.940Z,-70
2019-02-04T05:31:58.844Z,-70
2019-02-04T05:32:58.941Z,-70
2019-02-04T05:33:58.823Z,-70
2019-02-04T05:34:58.945Z,-70
2019-02-04T05:35:58.826Z,-70
2019-02-04T05:36:58.970Z,-70
2019-02-04T05:37:58.826Z,-70
2019-02-04T05:38:58.948Z,-70
2019-02-04T05:39:58.825Z,-70
2019-02-04T05:40:58.950Z,-70
2019-02-04T05:41:58.852Z,-70
2019-02-04T05:42:58.951Z,-70
2019-02-04T05:43:58.829Z,-70
2019-02-04T05:44:58.957Z,-70
2019-02-04T05:45:58.833Z,-70
2019-02-04T05:46:58.979Z,-70
2019-02-04T05:47:58.835Z,-70
2019-02-04T05:48:58.947Z,-70
2019-02-04T05:49:58.834Z,-70
2019-02-04T05:50:58.962Z,-69
2019-02-04T05:51:58.859Z,-70
2019-02-04T05:52:58.952Z,-70
2019-02-04T05:53:58.836Z,-70
2019-02-04T05:54:58.953Z,-70
2019-02-04T05:55:58.837Z,-70
2019-02-04T05:56:59.011Z,-70
2019-02-04T05:57:58.839Z,-70
2019-02-04T05:58:58.967Z,-70
2019-02-04T05:59:58.845Z,-70
2019-02-04T06:00:59.209Z,-70
2019-02-04T06:01:58.844Z,-70
2019-02-04T06:02:58.993Z,-70
2019-02-04T06:03:58.844Z,-70
2019-02-04T06:04:58.963Z,-70
2019-02-04T06:05:58.847Z,-70
2019-02-04T06:06:58.972Z,-70
2019-02-04T06:07:58.875Z,-70
2019-02-04T06:08:59.259Z,-70
2019-02-04T06:09:58.851Z,-70
2019-02-04T06:10:58.974Z,-70
2019-02-04T06:11:58.852Z,-70
2019-02-04T06:12:59.022Z,-70
2019-02-04T06:13:58.852Z,-70
2019-02-04T06:14:58.988Z,-70
2019-02-04T06:15:58.856Z,-70
2019-02-04T06:16:59.408Z,-70
2019-02-04T06:17:58.881Z,-70
2019-02-04T06:19:01.371Z,-70
2019-02-04T06:19:58.858Z,-69
2019-02-04T06:20:58.983Z,-70
2019-02-04T06:21:58.860Z,-70
2019-02-04T06:22:59.004Z,-70
2019-02-04T06:23:58.863Z,-70
2019-02-04T06:24:59.253Z,-70
2019-02-04T06:25:58.869Z,-70
2019-02-04T06:26:58.986Z,-70
2019-02-04T06:27:58.889Z,-70
2019-02-04T06:28:58.984Z,-70
2019-02-04T06:29:58.866Z,-70
2019-02-04T06:30:58.981Z,-70
2019-02-04T06:31:58.864Z,-70
2019-02-04T06:32:59.408Z,-70
2019-02-04T06:33:58.866Z,-70
2019-02-04T06:34:58.994Z,-70
2019-02-04T06:35:58.868Z,-70
2019-02-04T06:36:59.000Z,-70
2019-02-04T06:37:58.895Z,-70
2019-02-04T06:38:58.989Z,-70
2019-02-04T06:39:58.870Z,-70
2019-02-04T06:40:59.426Z,-70
2019-02-04T06:41:58.873Z,-70
2019-02-04T06:42:59.018Z,-70
2019-02-04T06:43:58.877Z,-70
2019-02-04T06:44:58.996Z,-70
2019-02-04T06:45:58.877Z,-70
2019-02-04T06:46:59.008Z,-70
2019-02-04T06:47:58.906Z,-70
2019-02-04T06:48:58.997Z,-70
2019-02-04T06:49:58.879Z,-70
2019-02-04T06:50:58.996Z,-70
2019-02-04T06:51:58.881Z,-70
2019-02-04T06:52:59.048Z,-70
2019-02-04T06:53:58.884Z,-70
2019-02-04T06:54:59.007Z,-70
2019-02-04T06:55:58.885Z,-70
2019-02-04T06:56:59.010Z,-70
2019-02-04T06:57:58.886Z,-70
2019-02-04T06:58:59.034Z,-69
2019-02-04T06:59:58.890Z,-70
2019-02-04T07:00:59.033Z,-70
2019-02-04T07:01:58.897Z,-70
2019-02-04T07:02:59.018Z,-70
2019-02-04T07:03:58.917Z,-70
2019-02-04T07:04:59.011Z,-70
2019-02-04T07:05:58.895Z,-70
2019-02-04T07:06:59.018Z,-70
2019-02-04T07:07:58.895Z,-70
2019-02-04T07:08:59.039Z,-70
2019-02-04T07:09:58.897Z,-70
2019-02-04T07:10:59.017Z,-70
2019-02-04T07:11:58.897Z,-70
2019-02-04T07:12:59.024Z,-70
2019-02-04T07:13:58.924Z,-70
2019-02-04T07:14:59.023Z,-70
2019-02-04T07:15:58.897Z,-70
2019-02-04T07:16:59.026Z,-70
2019-02-04T07:18:01.619Z,-70
2019-02-04T07:18:59.045Z,-70
2019-02-04T07:19:58.936Z,-70
2019-02-04T07:20:59.029Z,-70
2019-02-04T07:21:58.907Z,-70
2019-02-04T07:22:59.029Z,-70
2019-02-04T07:23:58.931Z,-70
2019-02-04T07:24:59.031Z,-70
2019-02-04T07:25:58.906Z,-70
2019-02-04T07:26:59.330Z,-70
2019-02-04T07:27:58.912Z,-70
2019-02-04T07:28:59.078Z,-70
2019-02-04T07:29:58.911Z,-70
2019-02-04T07:30:59.028Z,-70
2019-02-04T07:31:58.915Z,-70
2019-02-04T07:32:59.030Z,-70
2019-02-04T07:33:58.945Z,-69
2019-02-04T07:34:59.486Z,-70
2019-02-04T07:35:58.915Z,-69
2019-02-04T07:36:59.035Z,-69
2019-02-04T07:37:58.919Z,-70
2019-02-04T07:38:59.063Z,-69
2019-02-04T07:39:58.919Z,-69
2019-02-04T07:40:59.042Z,-70
2019-02-04T07:41:58.917Z,-70
2019-02-04T07:42:59.041Z,-70
2019-02-04T07:43:58.948Z,-70
2019-02-04T07:44:59.045Z,-70
2019-02-04T07:45:58.931Z,-70
2019-02-04T07:46:59.050Z,-70
2019-02-04T07:47:58.922Z,-70
2019-02-04T07:48:59.099Z,-70
2019-02-04T07:49:58.927Z,-70
2019-02-04T07:50:59.055Z,-70
2019-02-04T07:51:58.980Z,-70
2019-02-04T07:52:59.052Z,-70
2019-02-04T07:53:59.137Z,-70
2019-02-04T07:54:59.082Z,-70
2019-02-04T07:55:58.934Z,-70
2019-02-04T07:56:59.063Z,-70
2019-02-04T07:57:58.931Z,-70
2019-02-04T07:58:59.047Z,-70
2019-02-04T07:59:58.960Z,-70
2019-02-04T08:00:59.055Z,-70
2019-02-04T08:01:58.935Z,-70
2019-02-04T08:02:59.055Z,-70
2019-02-04T08:03:58.935Z,-70
2019-02-04T08:04:59.163Z,-70
2019-02-04T08:05:58.940Z,-69
2019-02-04T08:06:59.342Z,-69
2019-02-04T08:07:58.942Z,-69
2019-02-04T08:08:59.062Z,-70
2019-02-04T08:09:58.969Z,-70
2019-02-04T08:10:59.063Z,-70
2019-02-04T08:11:58.944Z,-70
2019-02-04T08:13:02.214Z,-70
2019-02-04T08:13:58.950Z,-70
2019-02-04T08:14:59.095Z,-70
2019-02-04T08:15:58.947Z,-70
2019-02-04T08:16:59.069Z,-70
2019-02-04T08:17:58.947Z,-70
2019-02-04T08:18:59.068Z,-70
2019-02-04T08:19:58.977Z,-70
2019-02-04T08:20:59.073Z,-70
2019-02-04T08:21:58.950Z,-70
2019-02-04T08:22:59.073Z,-70
2019-02-04T08:23:58.952Z,-70
2019-02-04T08:24:59.095Z,-70
2019-02-04T08:25:58.953Z,-70
2019-02-04T08:26:59.073Z,-70
2019-02-04T08:27:58.957Z,-70
2019-02-04T08:28:59.186Z,-70
2019-02-04T08:29:58.983Z,-69
2019-02-04T08:30:59.079Z,-70
2019-02-04T08:31:58.968Z,-70
2019-02-04T08:32:59.089Z,-70
2019-02-04T08:33:58.962Z,-70
2019-02-04T08:34:59.115Z,-70
2019-02-04T08:35:58.963Z,-70
2019-02-04T08:36:59.354Z,-70
2019-02-04T08:37:58.973Z,-70
2019-02-04T08:38:59.102Z,-70
2019-02-04T08:39:58.963Z,-70
2019-02-04T08:40:59.115Z,-70
2019-02-04T08:41:58.964Z,-70
2019-02-04T08:42:59.096Z,-70
2019-02-04T08:43:58.972Z,-70
2019-02-04T08:44:59.509Z,-70
2019-02-04T08:45:59.003Z,-70
2019-02-04T08:46:59.099Z,-70
2019-02-04T08:47:58.968Z,-69
2019-02-04T08:48:59.100Z,-70
2019-02-04T08:50:01.735Z,-69
2019-02-04T08:50:59.129Z,-69
2019-02-04T08:51:58.975Z,-69
2019-02-04T08:52:59.105Z,-69
2019-02-04T08:53:58.973Z,-69
2019-02-04T08:54:59.097Z,-69
2019-02-04T08:55:59.002Z,-69
2019-02-04T08:56:59.101Z,-69
2019-02-04T08:57:58.977Z,-69
2019-02-04T08:58:59.101Z,-69
2019-02-04T08:59:58.978Z,-69
2019-02-04T09:00:59.132Z,-69
2019-02-04T09:01:58.981Z,-69
2019-02-04T09:02:59.109Z,-69
2019-02-04T09:03:58.986Z,-69
2019-02-04T09:04:59.107Z,-69
2019-02-04T09:05:59.011Z,-69
2019-02-04T09:06:59.189Z,-69
2019-02-04T09:07:58.986Z,-69
2019-02-04T09:08:59.111Z,-69
2019-02-04T09:09:58.991Z,-69
2019-02-04T09:10:59.134Z,-69
2019-02-04T09:11:58.989Z,-69
2019-02-04T09:12:59.113Z,-69
2019-02-04T09:13:58.993Z,-69
2019-02-04T09:14:59.439Z,-69
2019-02-04T09:15:59.017Z,-69
2019-02-04T09:16:59.124Z,-69
2019-02-04T09:17:58.994Z,-69
2019-02-04T09:18:59.118Z,-69
2019-02-04T09:20:09.375Z,-69
2019-02-04T09:20:59.145Z,-69
2019-02-04T09:21:58.998Z,-69
2019-02-04T09:22:59.124Z,-69
2019-02-04T09:23:58.999Z,-69
2019-02-04T09:24:59.119Z,-69
2019-02-04T09:25:59.026Z,-69
2019-02-04T09:26:59.126Z,-69
2019-02-04T09:27:59.001Z,-69
2019-02-04T09:28:59.128Z,-69
2019-02-04T09:29:59.007Z,-69
2019-02-04T09:30:59.147Z,-69
2019-02-04T09:31:59.004Z,-69
2019-02-04T09:32:59.133Z,-69
2019-02-04T09:33:59.008Z,-69
2019-02-04T09:34:59.126Z,-69
2019-02-04T09:35:59.035Z,-69
2019-02-04T09:36:59.141Z,-69
2019-02-04T09:37:59.010Z,-69
2019-02-04T09:38:59.135Z,-69
2019-02-04T09:39:59.010Z,-69
2019-02-04T09:40:59.162Z,-69
2019-02-04T09:41:59.012Z,-69
2019-02-04T09:42:59.141Z,-69
2019-02-04T09:43:59.015Z,-69
2019-02-04T09:44:59.366Z,-69
2019-02-04T09:45:59.041Z,-69
2019-02-04T09:46:59.137Z,-69
2019-02-04T09:47:59.019Z,-69
2019-02-04T09:48:59.141Z,-69
2019-02-04T09:49:59.019Z,-69
2019-02-04T09:50:59.174Z,-69
2019-02-04T09:51:59.022Z,-69
2019-02-04T09:52:59.517Z,-69
2019-02-04T09:53:59.048Z,-69
2019-02-04T09:54:59.340Z,-69
2019-02-04T09:55:59.048Z,-69
2019-02-04T09:56:59.161Z,-69
2019-02-04T09:57:59.024Z,-69
2019-02-04T09:58:59.143Z,-69
2019-02-04T09:59:59.185Z,-69
2019-02-04T10:00:59.573Z,-69
2019-02-04T10:01:59.028Z,-69
2019-02-04T10:02:59.167Z,-69
2019-02-04T10:03:59.042Z,-69
2019-02-04T10:04:59.158Z,-69
2019-02-04T10:05:59.029Z,-69
2019-02-04T10:06:59.178Z,-69
2019-02-04T10:07:59.033Z,-69
2019-02-04T10:08:59.513Z,-69
2019-02-04T10:09:59.240Z,-69
2019-02-04T10:10:59.162Z,-69
2019-02-04T10:11:59.063Z,-69
2019-02-04T10:12:59.159Z,-69
2019-02-04T10:13:59.036Z,-69
2019-02-04T10:14:59.188Z,-69
2019-02-04T10:15:59.059Z,-69
2019-02-04T10:16:59.463Z,-69
2019-02-04T10:17:59.073Z,-69
2019-02-04T10:18:59.193Z,-69
2019-02-04T10:19:59.043Z,-68
2019-02-04T10:20:59.175Z,-69
2019-02-04T10:21:59.088Z,-68
2019-02-04T10:22:59.212Z,-69
2019-02-04T10:23:59.061Z,-69
2019-02-04T10:24:59.950Z,-69
2019-02-04T10:25:59.057Z,-69
2019-02-04T10:26:59.456Z,-69
2019-02-04T10:27:59.046Z,-69
2019-02-04T10:28:59.184Z,-69
2019-02-04T10:29:59.095Z,-69
2019-02-04T10:30:59.344Z,-69
2019-02-04T10:31:59.073Z,-69
2019-02-04T10:32:59.275Z,-69
2019-02-04T10:33:59.099Z,-69
2019-02-04T10:34:59.201Z,-69
2019-02-04T10:35:59.112Z,-69
2019-02-04T10:36:59.382Z,-69
2019-02-04T10:37:59.063Z,-69
2019-02-04T10:38:59.269Z,-69
2019-02-04T10:39:59.056Z,-69
2019-02-04T10:40:59.189Z,-69
2019-02-04T10:41:59.086Z,-69
2019-02-04T10:42:59.711Z,-68
2019-02-04T10:43:59.067Z,-68
2019-02-04T10:44:59.230Z,-69
2019-02-04T10:45:59.102Z,-69
2019-02-04T10:46:59.340Z,-69
2019-02-04T10:47:59.102Z,-69
2019-02-04T10:48:59.303Z,-68
2019-02-04T10:49:59.155Z,-68
2019-02-04T10:50:59.240Z,-69
2019-02-04T10:51:59.092Z,-69
2019-02-04T10:52:59.220Z,-69
2019-02-04T10:53:59.072Z,-69
2019-02-04T10:54:59.262Z,-68
2019-02-04T10:55:59.068Z,-69
2019-02-04T10:56:59.271Z,-69
2019-02-04T10:57:59.071Z,-69
2019-02-04T10:58:59.215Z,-69
2019-02-04T10:59:59.071Z,-69
2019-02-04T11:00:59.279Z,-69
2019-02-04T11:01:59.076Z,-69
2019-02-04T11:02:59.259Z,-69
2019-02-04T11:03:59.119Z,-69
2019-02-04T11:04:59.244Z,-69
2019-02-04T11:05:59.090Z,-69
2019-02-04T11:06:59.264Z,-69
2019-02-04T11:07:59.103Z,-69
2019-02-04T11:08:59.392Z,-69
2019-02-04T11:09:59.118Z,-69
2019-02-04T11:10:59.227Z,-69
2019-02-04T11:11:59.108Z,-69
2019-02-04T11:12:59.430Z,-69
2019-02-04T11:13:59.086Z,-69
2019-02-04T11:14:59.440Z,-68
2019-02-04T11:15:59.087Z,-69
2019-02-04T11:16:59.662Z,-68
2019-02-04T11:17:59.136Z,-69
2019-02-04T11:18:59.539Z,-69
2019-02-04T11:19:59.093Z,-69
2019-02-04T11:20:59.255Z,-69
2019-02-04T11:21:59.288Z,-69
2019-02-04T11:22:59.276Z,-69
2019-02-04T11:23:59.116Z,-69
2019-02-04T11:24:59.223Z,-69
2019-02-04T11:25:59.142Z,-69
2019-02-04T11:26:59.633Z,-69
2019-02-04T11:27:59.145Z,-69
2019-02-04T11:28:59.242Z,-69
2019-02-04T11:29:59.107Z,-69
2019-02-04T11:30:59.266Z,-69
2019-02-04T11:31:59.118Z,-69
2019-02-04T11:32:59.435Z,-69
2019-02-04T11:33:59.265Z,-69
2019-02-04T11:34:59.739Z,-69
2019-02-04T11:35:59.139Z,-69
2019-02-04T11:36:59.301Z,-69
2019-02-04T11:37:59.181Z,-68
2019-02-04T11:38:59.250Z,-69
2019-02-04T11:39:59.112Z,-69
2019-02-04T11:40:59.368Z,-68
2019-02-04T11:41:59.132Z,-68
2019-02-04T11:42:59.598Z,-68
2019-02-04T11:43:59.183Z,-69
2019-02-04T11:44:59.252Z,-69
2019-02-04T11:45:59.156Z,-69
2019-02-04T11:46:59.337Z,-69
2019-02-04T11:47:59.146Z,-69
2019-02-04T11:48:59.258Z,-69
2019-02-04T11:49:59.112Z,-69
2019-02-04T11:51:10.131Z,-69
2019-02-04T11:51:59.119Z,-69
2019-02-04T11:52:59.239Z,-69
2019-02-04T11:53:59.141Z,-69
2019-02-04T11:54:59.236Z,-69
2019-02-04T11:55:59.120Z,-69
2019-02-04T11:56:59.239Z,-69
2019-02-04T11:57:59.121Z,-69
2019-02-04T11:58:59.268Z,-69
2019-02-04T11:59:59.124Z,-69
2019-02-04T12:00:59.288Z,-69
2019-02-04T12:01:59.126Z,-69
2019-02-04T12:02:59.252Z,-69
2019-02-04T12:03:59.153Z,-69
2019-02-04T12:04:59.252Z,-69
2019-02-04T12:05:59.126Z,-69
2019-02-04T12:06:59.249Z,-69
2019-02-04T12:07:59.126Z,-69
2019-02-04T12:08:59.279Z,-69
2019-02-04T12:09:59.130Z,-69
2019-02-04T12:10:59.254Z,-69
2019-02-04T12:11:59.135Z,-69
2019-02-04T12:12:59.261Z,-69
2019-02-04T12:13:59.162Z,-69
2019-02-04T12:14:59.274Z,-70
2019-02-04T12:15:59.136Z,-69
2019-02-04T12:16:59.394Z,-69
2019-02-04T12:17:59.140Z,-69
2019-02-04T12:18:59.284Z,-69
2019-02-04T12:19:59.139Z,-69
2019-02-04T12:21:00.740Z,-69
2019-02-04T12:21:59.154Z,-69
2019-02-04T12:22:59.261Z,-69
2019-02-04T12:23:59.170Z,-69
2019-02-04T12:24:59.258Z,-69
2019-02-04T12:25:59.143Z,-69
2019-02-04T12:26:59.264Z,-69
2019-02-04T12:27:59.147Z,-69
2019-02-04T12:28:59.328Z,-69
2019-02-04T12:29:59.146Z,-69
2019-02-04T12:30:59.272Z,-69
2019-02-04T12:31:59.150Z,-69
2019-02-04T12:32:59.275Z,-69
2019-02-04T12:33:59.176Z,-68
2019-02-04T12:34:59.267Z,-69
2019-02-04T12:36:01.960Z,-69
2019-02-04T12:36:59.428Z,-69
2019-02-04T12:37:59.151Z,-69
2019-02-04T12:38:59.298Z,-69
2019-02-04T12:39:59.159Z,-69
2019-02-04T12:40:59.279Z,-69
2019-02-04T12:41:59.182Z,-68
2019-02-04T12:42:59.286Z,-68
2019-02-04T12:43:59.365Z,-68
2019-02-04T12:44:59.668Z,-69
2019-02-04T12:45:59.161Z,-69
2019-02-04T12:46:59.280Z,-68
2019-02-04T12:48:00.771Z,-70
2019-02-04T12:48:59.331Z,-69
2019-02-04T12:49:59.167Z,-69
2019-02-04T12:50:59.286Z,-69
2019-02-04T12:51:59.163Z,-69
2019-02-04T12:52:59.715Z,-68
2019-02-04T12:53:59.166Z,-68
2019-02-04T12:54:59.319Z,-68
2019-02-04T12:55:59.168Z,-69
2019-02-04T12:56:59.287Z,-69
2019-02-04T12:57:59.169Z,-69
2019-02-04T12:58:59.300Z,-69
2019-02-04T12:59:59.198Z,-69
2019-02-04T13:00:59.661Z,-68
2019-02-04T13:01:59.173Z,-68
2019-02-04T13:02:59.678Z,-69
2019-02-04T13:03:59.172Z,-68
2019-02-04T13:04:59.323Z,-68
2019-02-04T13:05:59.177Z,-69
2019-02-04T13:06:59.315Z,-69
2019-02-04T13:07:59.175Z,-69
2019-02-04T13:08:59.297Z,-69
2019-02-04T13:09:59.204Z,-68
2019-02-04T13:10:59.296Z,-69
2019-02-04T13:11:59.293Z,-68
2019-02-04T13:12:59.434Z,-69
2019-02-04T13:13:59.181Z,-69
2019-02-04T13:14:59.329Z,-69
2019-02-04T13:15:59.228Z,-69
2019-02-04T13:16:59.307Z,-69
2019-02-04T13:17:59.185Z,-69
2019-02-04T13:18:59.304Z,-69
2019-02-04T13:19:59.211Z,-69
2019-02-04T13:20:59.308Z,-69
2019-02-04T13:21:59.191Z,-67
2019-02-04T13:22:59.313Z,-69
2019-02-04T13:23:59.190Z,-69
2019-02-04T13:24:59.496Z,-69
2019-02-04T13:25:59.534Z,-69
2019-02-04T13:26:59.314Z,-69
2019-02-04T13:27:59.192Z,-69
2019-02-04T13:28:59.314Z,-69
2019-02-04T13:29:59.219Z,-69
2019-02-04T13:30:59.323Z,-69
2019-02-04T13:31:59.209Z,-69
2019-02-04T13:32:59.414Z,-69
2019-02-04T13:33:59.198Z,-69
2019-02-04T13:34:59.341Z,-69
2019-02-04T13:35:59.200Z,-69
2019-02-04T13:36:59.323Z,-69
2019-02-04T13:37:59.202Z,-69
2019-02-04T13:38:59.320Z,-69
2019-02-04T13:39:59.232Z,-69
2019-02-04T13:41:09.583Z,-69
2019-02-04T13:41:59.202Z,-67
2019-02-04T13:42:59.331Z,-69
2019-02-04T13:43:59.207Z,-69
2019-02-04T13:44:59.353Z,-68
2019-02-04T13:45:59.211Z,-69
2019-02-04T13:46:59.327Z,-69